createdAt,value
2022-09-14T00:02:00.673Z,97046.84
2022-09-14T00:07:02.397Z,97048.97
2022-09-14T00:12:04.002Z,97044.31
2022-09-14T00:17:05.634Z,97030.88
2022-09-14T00:22:07.314Z,97018.22
2022-09-14T00:27:08.914Z,97014.25
2022-09-14T00:32:10.648Z,97003.41
2022-09-14T00:37:12.669Z,97001.22
2022-09-14T00:42:19.422Z,96988.72
2022-09-14T00:47:21.089Z,96982.75
2022-09-14T00:52:26.604Z,96970.09
2022-09-14T00:57:34.102Z,96968.50
2022-09-14T01:02:36.795Z,96965.69
2022-09-14T01:08:01.762Z,96954.78
2022-09-14T01:13:44.902Z,96941.56
2022-09-14T01:18:55.451Z,96952.03
2022-09-14T01:24:23.344Z,96933.50
2022-09-14T01:29:28.273Z,96944.69
2022-09-14T01:34:52.377Z,96950.50
2022-09-14T01:40:04.209Z,96933.31
2022-09-14T01:45:10.254Z,96932.50
2022-09-14T01:50:19.142Z,96936.34
2022-09-14T01:55:31.310Z,96931.53
2022-09-14T02:00:33.706Z,96940.28
2022-09-14T02:06:01.783Z,96935.53
2022-09-14T02:11:03.434Z,96937.94
2022-09-14T02:16:05.234Z,96934.38
2022-09-14T02:21:14.444Z,96932.03
2022-09-14T02:26:18.311Z,96930.16
2022-09-14T02:31:53.982Z,96925.88
2022-09-14T02:37:11.665Z,96931.00
2022-09-14T02:42:37.020Z,96931.88
2022-09-14T02:47:55.263Z,96938.38
2022-09-14T02:53:08.502Z,96925.19
2022-09-14T02:58:12.861Z,96922.16
2022-09-14T03:03:17.797Z,96911.53
2022-09-14T03:08:19.384Z,96918.25
2022-09-14T03:13:21.403Z,96915.03
2022-09-14T03:18:23.023Z,96909.50
2022-09-14T03:23:24.596Z,96893.06
2022-09-14T03:28:26.144Z,96903.06
2022-09-14T03:33:27.734Z,96894.13
2022-09-14T03:38:30.158Z,96883.09
2022-09-14T03:43:31.708Z,96879.94
2022-09-14T03:48:33.448Z,96869.47
2022-09-14T03:53:35.727Z,96860.00
2022-09-14T03:58:38.242Z,96855.78
2022-09-14T04:03:40.480Z,96847.94
2022-09-14T04:08:43.565Z,96841.69
2022-09-14T04:13:46.264Z,96846.34
2022-09-14T04:18:48.679Z,96842.03
2022-09-14T04:29:41.851Z,96858.78
2022-09-14T04:34:43.394Z,96860.25
2022-09-14T04:39:44.976Z,96860.25
2022-09-14T04:44:46.504Z,96863.56
2022-09-14T04:49:48.042Z,96860.72
2022-09-14T04:54:49.548Z,96858.16
2022-09-14T04:59:51.056Z,96846.59
2022-09-14T05:04:52.627Z,96847.13
2022-09-14T05:09:54.334Z,96847.69
2022-09-14T05:14:55.879Z,96847.03
2022-09-14T05:19:57.396Z,96839.47
2022-09-14T05:24:58.939Z,96843.44
2022-09-14T05:30:00.493Z,96844.38
2022-09-14T05:35:02.026Z,96843.38
2022-09-14T05:40:05.700Z,96842.50
2022-09-14T05:45:07.808Z,96843.63
2022-09-14T05:50:09.602Z,96849.25
2022-09-14T05:55:11.143Z,96850.50
2022-09-14T06:00:13.361Z,96842.31
2022-09-14T06:05:15.289Z,96839.56
2022-09-14T06:10:16.924Z,96835.13
2022-09-14T06:15:18.473Z,96838.06
2022-09-14T06:20:19.972Z,96832.00
2022-09-14T06:25:21.486Z,96820.16
2022-09-14T06:30:23.132Z,96821.84
2022-09-14T06:35:24.643Z,96820.47
2022-09-14T06:40:27.156Z,96820.91
2022-09-14T06:45:30.775Z,96817.78
2022-09-14T06:50:32.288Z,96814.75
2022-09-14T06:55:33.851Z,96809.97
2022-09-14T07:00:35.671Z,96818.03
2022-09-14T07:05:37.205Z,96815.59
2022-09-14T07:10:38.876Z,96815.28
2022-09-14T07:15:40.506Z,96816.16
2022-09-14T07:20:42.038Z,96817.03
2022-09-14T07:25:43.588Z,96817.53
2022-09-14T07:30:45.161Z,96821.19
2022-09-14T07:35:46.774Z,96822.38
2022-09-14T07:40:48.903Z,96826.03
2022-09-14T07:45:50.505Z,96821.66
2022-09-14T07:51:03.208Z,96833.22
2022-09-14T07:56:05.542Z,96825.81
2022-09-14T08:01:12.046Z,96828.59
2022-09-14T08:06:29.007Z,96823.09
2022-09-14T08:11:32.184Z,96826.75
2022-09-14T08:16:38.717Z,96822.16
2022-09-14T08:21:46.434Z,96824.78
2022-09-14T08:26:52.874Z,96818.56
2022-09-14T08:32:20.094Z,96815.13
2022-09-14T08:37:21.954Z,96810.13
2022-09-14T08:42:25.574Z,96809.56
2022-09-14T08:47:32.236Z,96809.81
2022-09-14T08:52:38.317Z,96812.84
2022-09-14T08:57:39.816Z,96812.59
2022-09-14T09:03:18.976Z,96804.56
2022-09-14T09:08:49.946Z,96795.59
2022-09-14T09:13:53.137Z,96800.31
2022-09-14T09:19:03.054Z,96797.09
2022-09-14T09:24:20.163Z,96793.53
2022-09-14T09:29:21.986Z,96793.34
2022-09-14T09:34:42.297Z,96786.56
2022-09-14T09:39:50.554Z,96790.03
2022-09-14T09:45:05.373Z,96782.56
2022-09-14T09:50:13.421Z,96782.94
2022-09-14T09:55:20.373Z,96775.13
2022-09-14T10:00:29.916Z,96780.28
2022-09-14T10:05:32.601Z,96782.22
2022-09-14T10:10:34.112Z,96779.09
2022-09-14T10:15:39.283Z,96787.06
2022-09-14T10:21:06.646Z,96782.78
2022-09-14T10:26:14.171Z,96777.53
2022-09-14T10:31:18.796Z,96785.56
2022-09-14T10:36:31.023Z,96789.50
2022-09-14T10:42:02.532Z,96783.72
2022-09-14T10:47:10.101Z,96782.72
2022-09-14T10:52:30.030Z,96766.31
2022-09-14T10:57:54.380Z,96764.25
2022-09-14T11:03:07.763Z,96760.63
2022-09-14T11:08:15.025Z,96772.47
2022-09-14T11:13:37.856Z,96770.84
2022-09-14T11:18:45.486Z,96765.50
2022-09-14T11:23:57.215Z,96757.53
2022-09-14T11:29:21.530Z,96750.38
2022-09-14T11:34:37.964Z,96758.81
2022-09-14T11:39:48.002Z,96754.47
2022-09-14T11:44:58.159Z,96736.66
2022-09-14T11:50:15.237Z,96727.56
2022-09-14T11:55:18.383Z,96731.41
2022-09-14T12:00:20.299Z,96722.47
2022-09-14T12:05:21.840Z,96732.13
2022-09-14T12:10:23.869Z,96718.94
2022-09-14T12:15:26.088Z,96717.88
2022-09-14T12:20:50.510Z,96718.28
2022-09-14T12:26:10.486Z,96719.47
2022-09-14T12:31:29.628Z,96723.28
2022-09-14T12:36:37.385Z,96712.44
2022-09-14T12:41:39.458Z,96706.13
2022-09-14T12:46:41.169Z,96696.78
2022-09-14T12:51:48.744Z,96700.16
2022-09-14T12:57:28.685Z,96699.78
2022-09-14T13:02:48.792Z,96698.03
2022-09-14T13:07:51.254Z,96696.78
2022-09-14T13:13:03.135Z,96689.53
2022-09-14T13:18:07.557Z,96675.31
2022-09-14T13:23:23.113Z,96673.63
2022-09-14T13:28:27.946Z,96662.09
2022-09-14T13:33:30.308Z,96656.53
2022-09-14T13:38:34.685Z,96655.16
2022-09-14T13:43:36.501Z,96653.56
2022-09-14T13:48:42.867Z,96657.53
2022-09-14T13:53:49.908Z,96657.38
2022-09-14T13:59:18.466Z,96661.66
2022-09-14T14:04:36.263Z,96657.19
2022-09-14T14:09:42.624Z,96657.03
2022-09-14T14:14:56.621Z,96644.66
2022-09-14T14:20:00.902Z,96646.41
2022-09-14T14:25:19.122Z,96643.59
2022-09-14T14:30:21.914Z,96642.75
2022-09-14T14:35:27.073Z,96638.28
2022-09-14T14:40:28.805Z,96634.03
2022-09-14T14:45:35.953Z,96641.78
2022-09-14T14:50:38.512Z,96638.13
2022-09-14T14:55:40.943Z,96636.03
2022-09-14T15:00:43.111Z,96632.06
2022-09-14T15:05:48.061Z,96628.63
2022-09-14T15:10:56.092Z,96622.19
2022-09-14T15:15:57.691Z,96612.16
2022-09-14T15:20:59.339Z,96617.38
2022-09-14T15:26:01.064Z,96611.06
2022-09-14T15:31:07.111Z,96612.03
2022-09-14T15:36:09.360Z,96603.84
2022-09-14T15:41:12.575Z,96605.34
2022-09-14T15:46:14.189Z,96590.06
2022-09-14T15:51:17.201Z,96591.66
2022-09-14T15:56:19.575Z,96595.00
2022-09-14T16:01:21.238Z,96590.22
2022-09-14T16:06:23.004Z,96575.97
2022-09-14T16:11:24.769Z,96584.91
2022-09-14T16:16:26.700Z,96579.88
2022-09-14T16:21:28.361Z,96576.47
2022-09-14T16:26:33.764Z,96570.66
2022-09-14T16:31:37.465Z,96565.09
2022-09-14T16:36:40.555Z,96553.56
2022-09-14T16:41:43.581Z,96556.19
2022-09-14T16:46:45.912Z,96555.88
2022-09-14T16:51:47.568Z,96556.63
2022-09-14T16:56:49.535Z,96559.75
2022-09-14T17:01:54.523Z,96540.56
2022-09-14T17:06:56.881Z,96548.44
2022-09-14T17:11:59.086Z,96536.09
2022-09-14T17:17:01.418Z,96531.91
2022-09-14T17:22:03.931Z,96519.25
2022-09-14T17:27:05.540Z,96506.31
2022-09-14T17:32:09.275Z,96503.84
2022-09-14T17:37:14.191Z,96496.78
2022-09-14T17:42:15.809Z,96497.81
2022-09-14T17:47:17.432Z,96488.63
2022-09-14T17:52:18.999Z,96484.16
2022-09-14T17:57:20.589Z,96485.19
2022-09-14T18:02:24.681Z,96489.94
2022-09-14T18:07:27.064Z,96495.69
2022-09-14T18:12:32.357Z,96490.97
2022-09-14T18:17:38.030Z,96480.16
2022-09-14T18:22:39.600Z,96465.41
2022-09-14T18:27:41.184Z,96465.16
2022-09-14T18:32:42.738Z,96456.81
2022-09-14T18:37:44.315Z,96453.91
2022-09-14T18:42:46.076Z,96446.28
2022-09-14T18:47:47.634Z,96433.44
2022-09-14T18:52:50.695Z,96443.94
2022-09-14T18:57:52.360Z,96436.84
2022-09-14T19:02:57.359Z,96452.13
2022-09-14T19:07:59.878Z,96451.28
2022-09-14T19:13:01.585Z,96460.75
2022-09-14T19:18:03.154Z,96454.28
2022-09-14T19:23:07.048Z,96455.28
2022-09-14T19:28:09.009Z,96450.50
2022-09-14T19:33:10.663Z,96433.59
2022-09-14T19:38:12.192Z,96434.91
2022-09-14T19:43:13.795Z,96445.03
2022-09-14T19:48:15.524Z,96444.94
2022-09-14T19:53:17.095Z,96441.00
2022-09-14T19:58:18.737Z,96435.50
2022-09-14T20:03:20.312Z,96463.09
2022-09-14T20:08:21.869Z,96457.28
2022-09-14T20:13:23.495Z,96476.75
2022-09-14T20:18:25.391Z,96491.91
2022-09-14T20:23:29.271Z,96505.97
2022-09-14T20:28:33.693Z,96506.75
2022-09-14T20:33:37.844Z,96498.03
2022-09-14T20:38:48.502Z,96488.78
2022-09-14T20:43:53.260Z,96522.13
2022-09-14T20:48:55.085Z,96518.09
2022-09-14T20:53:57.141Z,96516.03
2022-09-14T20:59:00.906Z,96522.22
2022-09-14T21:04:13.936Z,96528.47
2022-09-14T21:09:18.092Z,96501.13
2022-09-14T21:14:20.593Z,96511.28
2022-09-14T21:19:27.408Z,96519.84
2022-09-14T21:24:31.034Z,96516.66
2022-09-14T21:29:32.731Z,96528.47
2022-09-14T21:34:34.358Z,96524.13
2022-09-14T21:39:37.984Z,96526.75
2022-09-14T21:44:39.568Z,96553.63
2022-09-14T21:49:41.116Z,96566.72
2022-09-14T21:54:42.676Z,96548.78
2022-09-14T21:59:44.420Z,96548.41
2022-09-14T22:04:46.224Z,96561.25
2022-09-14T22:09:50.150Z,96566.13
2022-09-14T22:14:52.018Z,96566.13
2022-09-14T22:19:59.449Z,96567.31
2022-09-14T22:25:01.077Z,96571.97
2022-09-14T22:48:47.951Z,96591.78
2022-09-14T22:54:48.059Z,96593.50
2022-09-14T23:06:23.868Z,96601.22
2022-09-14T23:12:13.782Z,96606.22
2022-09-14T23:22:56.729Z,96607.91
2022-09-14T23:28:23.248Z,96607.22
2022-09-14T23:51:02.776Z,96625.09
